Time;durP1;ratioP1;P1;durP2;ratioP2;P2;SDS_P1;SDS_P2;PMS_P1;PMS_P2;Temp;Humidity;BMP_temperature;BMP_pressure;BME280_temperature;BME280_humidity;BME280_pressure;Samples;Min_cycle;Max_cycle;Signal;HPM_P1;HPM_P2
2022/12/26 00:00:19;;;;;;;34.50;22.10;;;;;;;4.48;97.22;100751.09;107610;1254;95939;-57
2022/12/26 00:03:14;;;;;;;31.60;19.60;;;;;;;4.52;97.08;100743.98;107640;1254;81319;-51
2022/12/26 00:05:57;;;;;;;31.10;19.70;;;;;;;4.52;97.09;100745.46;107669;1253;83215;-52
2022/12/26 00:08:39;;;;;;;34.10;20.60;;;;;;;4.49;97.35;100749.63;107626;1254;97773;-57
2022/12/26 00:11:22;;;;;;;33.20;21.70;;;;;;;4.51;97.25;100749.63;107677;1253;87482;-60
2022/12/26 00:14:05;;;;;;;31.50;19.80;;;;;;;4.49;96.96;100746.59;107594;1254;94834;-60
2022/12/26 00:16:51;;;;;;;33.50;20.70;;;;;;;4.48;97.31;100739.89;107533;1254;81046;-53
2022/12/26 00:19:37;;;;;;;33.90;21.50;;;;;;;4.54;97.08;100731.35;107651;1252;80768;-59
2022/12/26 00:22:24;;;;;;;29.60;19.40;;;;;;;4.57;97.01;100726.73;107603;1254;98627;-58
2022/12/26 00:25:04;;;;;;;32.20;20.10;;;;;;;4.54;96.91;100729.56;107620;1254;87893;-58
2022/12/26 00:27:46;;;;;;;32.80;20.30;;;;;;;4.54;96.99;100733.82;107593;1253;93198;-57
2022/12/26 00:30:29;;;;;;;34.80;21.20;;;;;;;4.49;97.15;100735.68;107580;1252;80447;-57
2022/12/26 00:33:15;;;;;;;32.20;18.50;;;;;;;4.47;97.20;100730.40;107616;1252;83132;-54
2022/12/26 00:35:52;;;;;;;33.50;21.90;;;;;;;4.47;97.15;100722.40;107624;1254;98644;-56
2022/12/26 00:38:30;;;;;;;37.80;21.60;;;;;;;4.54;97.13;100724.93;107594;1253;86439;-57
2022/12/26 00:41:08;;;;;;;33.10;20.10;;;;;;;4.54;97.09;100720.24;107625;1254;95351;-60
2022/12/26 00:43:54;;;;;;;33.50;21.80;;;;;;;4.53;97.18;100720.37;107606;1253;80636;-59
2022/12/26 00:46:31;;;;;;;35.60;21.00;;;;;;;4.55;96.90;100721.60;107587;1254;81177;-53
2022/12/26 00:49:08;;;;;;;34.60;20.80;;;;;;;4.51;96.97;100732.34;107635;1254;99272;-55
2022/12/26 00:51:46;;;;;;;30.70;20.30;;;;;;;4.58;97.07;100734.66;107676;1252;89123;-45
2022/12/26 00:54:27;;;;;;;35.50;21.80;;;;;;;4.59;97.02;100734.71;107608;1254;95599;-42
2022/12/26 00:57:07;;;;;;;37.20;22.30;;;;;;;4.60;97.18;100737.88;107614;1254;82346;-57
2022/12/26 00:59:46;;;;;;;35.70;23.10;;;;;;;4.62;97.05;100728.77;107659;1253;82906;-58
2022/12/26 01:02:38;;;;;;;38.40;22.30;;;;;;;4.64;97.15;100724.72;107630;1254;97999;-58
2022/12/26 01:05:18;;;;;;;37.70;21.90;;;;;;;4.69;97.14;100706.17;107669;1256;88962;-58
2022/12/26 01:07:55;;;;;;;35.00;21.70;;;;;;;4.75;97.01;100695.07;107671;1254;95676;-58
2022/12/26 01:10:33;;;;;;;34.20;21.80;;;;;;;4.72;97.02;100693.08;107622;1253;81830;-59
2022/12/26 01:13:15;;;;;;;32.40;22.20;;;;;;;4.79;97.12;100693.10;107591;1254;82216;-59
2022/12/26 01:15:54;;;;;;;33.20;21.90;;;;;;;4.78;97.01;100687.27;107597;1252;96836;-59
2022/12/26 01:18:32;;;;;;;36.30;22.40;;;;;;;4.79;97.02;100674.37;107616;1254;87984;-58
2022/12/26 01:21:11;;;;;;;36.70;23.80;;;;;;;4.83;96.78;100672.86;107605;1253;94151;-59
2022/12/26 01:23:48;;;;;;;36.20;22.60;;;;;;;4.78;96.92;100683.50;107600;1254;81765;-58
2022/12/26 01:26:30;;;;;;;39.40;23.90;;;;;;;4.77;96.98;100680.46;107656;1254;82134;-58
2022/12/26 01:29:10;;;;;;;36.50;23.00;;;;;;;4.80;96.98;100666.29;107605;1254;98415;-59
2022/12/26 01:31:57;;;;;;;36.20;22.50;;;;;;;4.83;96.88;100665.03;107655;1254;87210;-59
2022/12/26 01:34:39;;;;;;;37.90;22.50;;;;;;;4.77;97.00;100658.14;107630;1253;95778;-60
2022/12/26 01:37:22;;;;;;;36.70;23.00;;;;;;;4.79;96.68;100662.97;107592;1252;81322;-57
2022/12/26 01:39:56;;;;;;;35.00;21.70;;;;;;;4.78;96.90;100663.16;107625;1254;82825;-58
2022/12/26 01:42:41;;;;;;;34.40;21.50;;;;;;;4.77;96.86;100666.11;107686;1254;96420;-54
2022/12/26 01:45:29;;;;;;;31.20;20.20;;;;;;;4.80;96.82;100672.27;107696;1254;88108;-60
2022/12/26 01:48:14;;;;;;;35.40;22.20;;;;;;;4.80;96.78;100665.88;107607;1254;92480;-58
2022/12/26 01:50:59;;;;;;;35.50;20.30;;;;;;;4.72;96.88;100665.20;107641;1253;81589;-58
2022/12/26 01:53:42;;;;;;;;;;;;;;;4.73;97.10;100659.80;107639;1252;83289;-56
2022/12/26 01:56:31;;;;;;;36.10;21.90;;;;;;;4.78;97.00;100658.39;107583;1252;99001;-56
2022/12/26 01:59:13;;;;;;;35.10;21.10;;;;;;;4.83;96.99;100654.39;107615;1254;87068;-57
2022/12/26 02:01:59;;;;;;;34.20;21.70;;;;;;;4.89;96.99;100646.08;107605;1254;95499;-57
2022/12/26 02:07:49;;;;;;;35.60;21.30;;;;;;;4.93;96.99;100642.32;107615;1254;81442;-59
2022/12/26 02:10:33;;;;;;;34.30;21.60;;;;;;;4.89;96.84;100644.96;107566;1254;96905;-60
2022/12/26 02:13:11;;;;;;;32.40;21.10;;;;;;;4.84;96.95;100639.31;107612;1253;87111;-58
2022/12/26 02:15:49;;;;;;;30.90;19.90;;;;;;;4.83;96.75;100636.52;107639;1254;94974;-55
2022/12/26 02:18:31;;;;;;;31.00;20.10;;;;;;;4.78;96.92;100627.55;107611;1254;80963;-49
2022/12/26 02:21:35;;;;;;;32.70;19.50;;;;;;;4.77;97.12;100619.02;107646;1253;81403;-61
2022/12/26 02:25:04;;;;;;;30.70;20.30;;;;;;;4.81;97.15;100609.94;107655;1254;99630;-59
2022/12/26 02:28:23;;;;;;;31.40;20.00;;;;;;;4.83;97.09;100609.75;107711;1256;88483;-59
2022/12/26 02:31:02;;;;;;;32.60;19.90;;;;;;;4.82;97.19;100607.88;107660;1252;93488;-62
2022/12/26 02:34:03;;;;;;;30.30;18.80;;;;;;;4.83;97.22;100596.55;107664;1254;82488;-62
2022/12/26 02:36:57;;;;;;;30.70;20.10;;;;;;;4.89;97.10;100583.50;107686;1254;83969;-58
2022/12/26 02:40:03;;;;;;;35.00;21.00;;;;;;;4.84;97.11;100588.38;107687;1254;97589;-52
2022/12/26 02:42:58;;;;;;;33.30;22.10;;;;;;;4.84;97.04;100577.59;107612;1254;88310;-60
2022/12/26 02:48:47;;;;;;;34.90;23.10;;;;;;;4.75;96.93;100567.14;107572;1254;81799;-58
2022/12/26 03:13:35;;;;;;;35.60;23.20;;;;;;;4.86;97.11;100529.88;107637;1254;88572;-58
2022/12/26 03:19:15;;;;;;;36.80;23.30;;;;;;;4.83;97.37;100526.30;107621;1254;82166;-57
2022/12/26 03:21:54;;;;;;;32.70;22.00;;;;;;;4.87;97.19;100523.39;107651;1254;81865;-56
2022/12/26 03:26:38;;;;;;;31.40;20.50;;;;;;;4.87;97.15;100515.10;107618;1254;99474;-51
2022/12/26 03:27:41;;;;;;;34.00;23.10;;;;;;;4.81;97.27;100504.68;107567;1256;90310;-59
2022/12/26 03:36:22;;;;;;;31.60;20.60;;;;;;;4.80;97.35;100476.19;107614;1253;82585;-53
2022/12/26 03:39:10;;;;;;;34.30;21.70;;;;;;;4.85;97.42;100472.89;107582;1253;98244;-60
2022/12/26 04:45:13;;;;;;;23.00;15.20;;;;;;;4.65;97.99;100350.83;107623;1255;94107;-56
2022/12/26 04:50:53;;;;;;;23.10;15.20;;;;;;;4.66;98.17;100336.52;107651;1252;83057;-62
2022/12/26 04:53:32;;;;;;;24.00;14.70;;;;;;;4.68;98.00;100331.48;107601;1256;97711;-60
2022/12/26 04:56:09;;;;;;;20.30;14.90;;;;;;;4.67;98.13;100321.99;107659;1254;87578;-60
2022/12/26 04:58:50;;;;;;;20.70;15.30;;;;;;;4.64;98.27;100315.50;107576;1254;94070;-59
2022/12/26 05:10:22;;;;;;;19.60;14.00;;;;;;;4.55;98.51;100302.15;107573;1254;89307;-57
2022/12/26 05:12:57;;;;;;;21.10;13.60;;;;;;;4.56;98.46;100305.83;107578;1254;94186;-58
2022/12/26 05:28:40;;;;;;;17.20;13.10;;;;;;;4.55;98.61;100297.67;107589;1254;81508;-59
2022/12/26 05:30:50;;;;;;;15.10;11.50;;;;;;;4.55;98.94;100247.23;107549;1254;82536;-58
2022/12/26 05:36:25;;;;;;;15.20;11.20;;;;;;;4.59;98.78;100225.95;107590;1254;97829;-58
2022/12/26 05:39:00;;;;;;;15.10;11.00;;;;;;;4.59;98.67;100230.56;107643;1254;89357;-59
2022/12/26 05:41:42;;;;;;;14.80;10.90;;;;;;;4.63;98.73;100250.48;107612;1254;94556;-54
2022/12/26 05:44:27;;;;;;;14.50;10.60;;;;;;;4.62;98.85;100261.64;107574;1256;82675;-61
2022/12/26 05:47:05;;;;;;;;;;;;;;;4.60;98.77;100256.74;107618;1254;80523;-63
2022/12/26 05:49:49;;;;;;;13.00;10.00;;;;;;;4.60;98.75;100271.48;107558;1254;96023;-62
2022/12/26 05:52:29;;;;;;;14.80;10.10;;;;;;;4.59;98.96;100275.67;107579;1254;87592;-59
2022/12/26 05:55:09;;;;;;;12.60;9.30;;;;;;;4.65;98.88;100271.64;107596;1254;94879;-59
2022/12/26 05:57:46;;;;;;;12.90;9.80;;;;;;;4.64;98.86;100261.27;107548;1252;81818;-58
2022/12/26 06:00:21;;;;;;;13.80;9.90;;;;;;;4.63;98.95;100253.22;107593;1254;81037;-62
2022/12/26 06:03:05;;;;;;;14.30;10.20;;;;;;;4.64;98.75;100243.58;107578;1252;97710;-54
2022/12/26 06:05:49;;;;;;;13.90;10.40;;;;;;;4.68;98.74;100249.76;107576;1254;87536;-60
2022/12/26 06:08:31;;;;;;;13.00;9.70;;;;;;;4.74;98.60;100259.14;107567;1254;93027;-60
2022/12/26 06:11:12;;;;;;;13.90;9.90;;;;;;;4.74;98.67;100250.84;107553;1254;82437;-59
2022/12/26 06:13:51;;;;;;;10.90;8.30;;;;;;;4.75;98.79;100257.84;107621;1256;82866;-62
2022/12/26 06:16:36;;;;;;;12.30;8.50;;;;;;;4.76;98.49;100270.35;107626;1252;98986;-60
2022/12/26 06:19:14;;;;;;;11.70;8.70;;;;;;;4.73;98.61;100261.53;107581;1254;89322;-59
2022/12/26 06:21:51;;;;;;;11.40;9.10;;;;;;;4.79;98.56;100268.61;107618;1254;94052;-59
2022/12/26 06:24:33;;;;;;;10.80;8.80;;;;;;;4.83;98.53;100256.87;107593;1254;81881;-60
2022/12/26 06:27:14;;;;;;;12.90;8.40;;;;;;;4.80;98.41;100236.60;107637;1254;82838;-60
2022/12/26 06:29:52;;;;;;;9.90;8.00;;;;;;;4.73;98.75;100203.95;107602;1256;98976;-59
2022/12/26 06:32:34;;;;;;;8.80;7.00;;;;;;;4.67;98.76;100186.98;107645;1256;88520;-61
2022/12/26 06:35:11;;;;;;;9.80;7.90;;;;;;;4.65;98.91;100177.90;107607;1254;95208;-61
2022/12/26 06:37:53;;;;;;;10.30;7.20;;;;;;;4.63;98.92;100169.66;107571;1254;80639;-58
2022/12/26 06:40:33;;;;;;;9.40;7.30;;;;;;;4.61;98.79;100175.96;107575;1254;81656;-57
2022/12/26 06:43:18;;;;;;;8.60;6.60;;;;;;;4.59;98.97;100180.70;107557;1254;97684;-58
2022/12/26 06:46:03;;;;;;;11.30;8.70;;;;;;;4.58;98.86;100168.65;107506;1254;88880;-61
2022/12/26 06:48:46;;;;;;;12.10;9.20;;;;;;;4.59;98.95;100159.42;107571;1254;95455;-61
2022/12/26 06:51:29;;;;;;;12.00;8.90;;;;;;;4.58;99.04;100173.05;107580;1254;81605;-59
2022/12/26 06:54:11;;;;;;;12.90;8.40;;;;;;;4.56;99.07;100174.69;107587;1254;81152;-60
2022/12/26 06:56:48;;;;;;;11.90;9.10;;;;;;;4.55;99.13;100172.15;107603;1256;96771;-60
2022/12/26 06:59:30;;;;;;;9.70;8.40;;;;;;;4.53;99.10;100177.55;107563;1254;88013;-61
2022/12/26 07:02:10;;;;;;;12.60;9.50;;;;;;;4.55;98.98;100191.40;107581;1253;93725;-54
2022/12/26 07:04:48;;;;;;;11.50;9.40;;;;;;;4.60;99.05;100171.11;107611;1255;81194;-59
2022/12/26 07:07:26;;;;;;;12.80;9.40;;;;;;;4.60;99.16;100142.22;107572;1254;83309;-59
2022/12/26 07:10:05;;;;;;;13.30;9.40;;;;;;;4.60;99.12;100128.58;107626;1253;98102;-60
2022/12/26 07:12:45;;;;;;;12.10;9.30;;;;;;;4.60;99.11;100132.42;107629;1254;89435;-62
2022/12/26 07:15:21;;;;;;;11.40;9.50;;;;;;;4.55;99.20;100134.53;107615;1256;95283;-62
2022/12/26 07:18:11;;;;;;;12.10;9.60;;;;;;;4.56;99.36;100138.65;107635;1254;81137;-57
2022/12/26 07:20:48;;;;;;;13.40;10.30;;;;;;;4.55;99.37;100141.09;107592;1254;83120;-58
2022/12/26 07:23:32;;;;;;;12.50;10.10;;;;;;;4.60;99.07;100142.92;107609;1254;97863;-58
2022/12/26 07:26:09;;;;;;;14.80;10.10;;;;;;;4.58;99.24;100136.33;107561;1256;87879;-59
2022/12/26 07:28:52;;;;;;;13.60;11.00;;;;;;;4.60;99.19;100126.67;107569;1254;93086;-58
2022/12/26 07:31:29;;;;;;;11.80;10.00;;;;;;;4.64;99.29;100126.42;107550;1254;80792;-61
2022/12/26 07:34:06;;;;;;;13.40;10.70;;;;;;;4.68;99.32;100122.04;107614;1254;83511;-59
2022/12/26 07:36:46;;;;;;;15.30;10.70;;;;;;;4.70;99.21;100122.92;107590;1254;97962;-59
2022/12/26 07:39:26;;;;;;;13.00;10.80;;;;;;;4.71;99.18;100132.26;107630;1256;89236;-59
2022/12/26 07:42:15;;;;;;;14.50;10.60;;;;;;;4.76;99.28;100138.20;107587;1256;94458;-57
2022/12/26 07:44:53;;;;;;;14.50;10.70;;;;;;;4.83;99.09;100157.85;107571;1255;82252;-59
2022/12/26 07:47:40;;;;;;;12.00;9.30;;;;;;;4.84;99.16;100165.41;107618;1254;83302;-59
2022/12/26 07:50:26;;;;;;;14.00;10.30;;;;;;;4.88;99.12;100166.01;107601;1254;97659;-60
2022/12/26 07:53:04;;;;;;;14.50;10.90;;;;;;;4.88;99.08;100148.68;107622;1254;89024;-59
2022/12/26 07:55:49;;;;;;;12.10;9.50;;;;;;;4.89;99.12;100144.00;107611;1254;95400;-57
2022/12/26 07:58:34;;;;;;;15.00;10.40;;;;;;;4.92;99.09;100140.60;107589;1254;81649;-58
2022/12/26 08:01:17;;;;;;;14.20;10.10;;;;;;;4.97;99.06;100127.08;107580;1254;82752;-59
2022/12/26 08:04:02;;;;;;;15.50;10.50;;;;;;;5.01;99.06;100112.71;107558;1253;99124;-57
2022/12/26 08:06:43;;;;;;;;;;;;;;;5.05;99.03;100113.59;107587;1256;89336;-58
2022/12/26 08:09:26;;;;;;;14.30;11.10;;;;;;;5.07;99.12;100117.08;107595;1256;94123;-54
2022/12/26 08:12:06;;;;;;;13.20;10.60;;;;;;;5.10;98.96;100127.77;107546;1256;80542;-62
2022/12/26 08:14:44;;;;;;;13.00;9.60;;;;;;;5.14;98.76;100137.40;107606;1255;81786;-61
2022/12/26 08:17:23;;;;;;;14.70;10.40;;;;;;;5.10;98.85;100131.88;107596;1254;97036;-60
2022/12/26 08:20:02;;;;;;;14.60;9.80;;;;;;;5.14;98.78;100117.88;107558;1254;87863;-60
2022/12/26 08:22:41;;;;;;;16.70;11.60;;;;;;;5.17;98.90;100114.81;107578;1254;93492;-58
2022/12/26 08:25:16;;;;;;;16.70;10.20;;;;;;;5.24;98.71;100107.75;107587;1254;81999;-61
2022/12/26 08:27:53;;;;;;;14.70;10.20;;;;;;;5.26;98.87;100105.21;107616;1254;79724;-56
2022/12/26 08:30:34;;;;;;;17.50;11.00;;;;;;;5.31;98.93;100091.30;107593;1253;99069;-52
2022/12/26 08:33:16;;;;;;;12.50;10.40;;;;;;;5.36;98.81;100077.31;107648;1256;89033;-58
2022/12/26 08:35:56;;;;;;;15.00;10.80;;;;;;;5.39;98.93;100073.14;107681;1254;95260;-61
2022/12/26 08:38:33;;;;;;;15.70;11.00;;;;;;;5.43;98.82;100076.62;107563;1257;81739;-60
2022/12/26 08:41:07;;;;;;;;;;;;;;;5.49;98.86;100081.70;107645;1254;82697;-58
2022/12/26 08:43:47;;;;;;;17.50;11.00;;;;;;;5.51;98.89;100086.29;107588;1254;98983;-56
2022/12/26 08:46:25;;;;;;;16.40;11.90;;;;;;;5.54;98.91;100080.60;107631;1254;89174;-60
2022/12/26 08:49:01;;;;;;;14.30;10.70;;;;;;;5.58;98.51;100076.79;107627;1254;93632;-60
2022/12/26 08:51:38;;;;;;;16.10;11.90;;;;;;;5.60;98.71;100061.85;107589;1254;81362;-56
2022/12/26 08:54:20;;;;;;;16.00;11.50;;;;;;;5.59;98.70;100055.82;107572;1254;83068;-47
2022/12/26 08:57:05;;;;;;;17.70;11.40;;;;;;;5.63;98.83;100053.38;107600;1257;99024;-58
2022/12/26 08:59:47;;;;;;;19.40;12.70;;;;;;;5.70;98.79;100049.50;107597;1256;88099;-59
2022/12/26 09:02:34;;;;;;;17.10;11.50;;;;;;;5.75;98.80;100052.59;107595;1256;95564;-61
2022/12/26 09:05:10;;;;;;;15.90;11.80;;;;;;;5.81;98.82;100057.79;107603;1256;81494;-61
2022/12/26 09:07:53;;;;;;;15.50;11.50;;;;;;;5.89;98.94;100053.02;107660;1254;82555;-57
2022/12/26 09:10:36;;;;;;;18.50;12.40;;;;;;;5.95;98.83;100050.20;107595;1254;99776;-57
2022/12/26 09:13:15;;;;;;;17.00;12.00;;;;;;;6.00;98.77;100055.73;107618;1256;86567;-57
2022/12/26 09:15:53;;;;;;;17.80;11.90;;;;;;;6.01;98.61;100047.99;107631;1256;95060;-54
2022/12/26 09:18:32;;;;;;;17.10;11.60;;;;;;;5.99;98.62;100044.61;107590;1257;81896;-54
2022/12/26 09:21:14;;;;;;;17.50;12.00;;;;;;;5.99;98.72;100047.63;107689;1254;80871;-58
2022/12/26 09:23:51;;;;;;;17.40;12.70;;;;;;;6.01;98.70;100040.39;107662;1256;98401;-57
2022/12/26 09:26:26;;;;;;;18.40;12.80;;;;;;;6.03;98.70;100035.09;107682;1254;88405;-57
2022/12/26 09:29:06;;;;;;;19.40;13.50;;;;;;;6.07;98.65;100033.69;107591;1255;94440;-57
2022/12/26 09:31:47;;;;;;;18.50;12.50;;;;;;;6.10;98.74;100036.21;107635;1255;81960;-60
2022/12/26 09:34:26;;;;;;;17.80;13.20;;;;;;;6.11;98.64;100030.05;107673;1256;81172;-58
2022/12/26 09:37:07;;;;;;;17.60;12.10;;;;;;;6.12;98.73;100023.64;107641;1256;96962;-56
2022/12/26 09:39:45;;;;;;;17.80;12.50;;;;;;;6.17;98.70;100012.34;107631;1254;86752;-53
2022/12/26 09:42:38;;;;;;;17.00;12.60;;;;;;;6.23;98.51;100010.77;107627;1254;94887;-62
2022/12/26 09:45:27;;;;;;;17.50;12.20;;;;;;;6.26;98.59;100008.80;107555;1253;82728;-58
2022/12/26 09:48:11;;;;;;;19.00;13.20;;;;;;;6.28;98.55;100014.13;107607;1256;82608;-59
2022/12/26 09:50:54;;;;;;;19.90;14.50;;;;;;;6.28;98.61;100008.25;107583;1256;98464;-58
2022/12/26 09:53:40;;;;;;;19.30;12.80;;;;;;;6.29;98.55;100011.52;107621;1254;88280;-59
2022/12/26 09:56:29;;;;;;;17.70;12.00;;;;;;;6.36;98.57;100017.45;107622;1255;92954;-59
2022/12/26 09:59:15;;;;;;;18.40;13.00;;;;;;;6.44;98.72;100010.23;107620;1256;82556;-54
2022/12/26 10:01:56;;;;;;;20.50;13.30;;;;;;;6.51;98.78;100009.51;107661;1255;83250;-57
2022/12/26 10:04:32;;;;;;;20.90;13.80;;;;;;;6.63;98.87;100011.23;107613;1252;97476;-57
2022/12/26 10:07:22;;;;;;;17.60;14.10;;;;;;;6.70;98.73;100018.32;107647;1257;89231;-56
2022/12/26 10:10:15;;;;;;;21.20;14.30;;;;;;;6.77;98.72;100011.69;107683;1257;93930;-64
2022/12/26 10:13:08;;;;;;;22.10;14.10;;;;;;;6.82;98.77;100005.52;107573;1254;81214;-56
2022/12/26 10:15:53;;;;;;;20.60;13.70;;;;;;;6.88;98.58;100011.30;107630;1256;83491;-61
2022/12/26 10:18:40;;;;;;;18.40;14.00;;;;;;;6.91;98.67;99999.58;107651;1252;98495;-60
2022/12/26 10:21:49;;;;;;;19.70;13.50;;;;;;;6.89;98.57;99999.66;107609;1255;89112;-61
2022/12/26 10:24:33;;;;;;;20.00;13.30;;;;;;;6.93;98.55;99997.21;107563;1254;94981;-64
2022/12/26 10:27:17;;;;;;;19.30;14.00;;;;;;;6.93;98.45;99993.31;107599;1257;82557;-63
2022/12/26 10:29:56;;;;;;;20.40;14.20;;;;;;;6.92;98.50;99990.70;107592;1252;81877;-64
2022/12/26 10:32:44;;;;;;;18.30;13.40;;;;;;;7.03;98.66;99984.56;107589;1252;99065;-61
2022/12/26 10:35:32;;;;;;;21.30;13.80;;;;;;;7.16;98.65;99975.15;107607;1252;88273;-57
2022/12/26 10:38:16;;;;;;;17.80;13.50;;;;;;;7.22;98.67;99979.85;107611;1256;94885;-63
2022/12/26 10:40:54;;;;;;;19.90;13.40;;;;;;;7.35;98.68;99972.74;107603;1254;81116;-61
2022/12/26 10:43:34;;;;;;;22.60;14.00;;;;;;;7.42;98.65;99960.84;107623;1254;80577;-62
2022/12/26 10:46:51;;;;;;;18.70;13.90;;;;;;;7.40;98.64;99975.09;107632;1255;98934;-60
2022/12/26 10:49:31;;;;;;;20.40;14.00;;;;;;;7.46;98.70;99956.27;107633;1254;88538;-63
2022/12/26 10:52:06;;;;;;;21.20;14.60;;;;;;;7.52;98.70;99954.73;107658;1255;95548;-61
2022/12/26 10:54:46;;;;;;;18.70;14.00;;;;;;;7.62;98.75;99944.23;107589;1254;81185;-61
2022/12/26 10:57:24;;;;;;;19.70;13.90;;;;;;;7.72;98.73;99947.05;107594;1254;82161;-62
2022/12/26 11:00:02;;;;;;;17.40;13.20;;;;;;;7.82;98.81;99940.27;107594;1256;98005;-60
2022/12/26 11:02:45;;;;;;;21.20;13.30;;;;;;;7.97;98.86;99939.57;107608;1256;87745;-60
2022/12/26 11:05:33;;;;;;;17.80;13.20;;;;;;;8.04;99.11;99948.70;107604;1255;93382;-61
2022/12/26 11:08:27;;;;;;;19.70;12.80;;;;;;;8.13;99.09;99942.66;107597;1253;83610;-62
2022/12/26 11:11:12;;;;;;;18.80;12.90;;;;;;;8.20;99.23;99943.43;107667;1256;81663;-59
2022/12/26 11:13:59;;;;;;;16.20;12.20;;;;;;;8.30;99.12;99943.61;107590;1256;97507;-62
2022/12/26 11:16:43;;;;;;;16.00;11.70;;;;;;;8.40;99.02;99943.86;107608;1255;89501;-61
2022/12/26 11:19:35;;;;;;;16.90;12.70;;;;;;;8.55;99.12;99939.70;107563;1254;96386;-61
2022/12/26 11:22:27;;;;;;;16.50;11.90;;;;;;;8.69;99.15;99933.73;107611;1255;81684;-58
2022/12/26 11:25:26;;;;;;;17.60;11.60;;;;;;;8.80;99.14;99928.57;107649;1257;81180;-61
2022/12/26 11:28:25;;;;;;;18.10;11.80;;;;;;;8.88;99.09;99930.61;107635;1255;98715;-60
2022/12/26 11:31:07;;;;;;;16.90;11.20;;;;;;;9.00;99.00;99935.86;107615;1255;88813;-64
2022/12/26 11:33:48;;;;;;;16.00;11.70;;;;;;;9.10;98.99;99938.47;107586;1256;94295;-63
2022/12/26 11:36:28;;;;;;;16.00;11.30;;;;;;;9.20;98.87;99936.20;107668;1254;80199;-62
2022/12/26 11:39:21;;;;;;;15.90;10.90;;;;;;;9.27;98.80;99931.34;107649;1253;82722;-59
2022/12/26 11:42:09;;;;;;;15.60;11.00;;;;;;;9.38;98.72;99926.48;107645;1254;98670;-63
2022/12/26 11:44:51;;;;;;;17.00;10.60;;;;;;;9.42;98.51;99923.70;107615;1256;88489;-61
2022/12/26 11:47:30;;;;;;;14.70;10.90;;;;;;;9.44;98.19;99926.75;107652;1254;93932;-65
2022/12/26 11:50:16;;;;;;;15.30;10.80;;;;;;;9.48;98.15;99923.34;107609;1254;82428;-64
2022/12/26 11:53:16;;;;;;;15.90;11.20;;;;;;;9.58;98.13;99918.93;107565;1253;82757;-62
2022/12/26 11:56:00;;;;;;;18.80;11.90;;;;;;;9.67;98.25;99915.95;107630;1255;98829;-61
2022/12/26 11:58:38;;;;;;;16.70;11.50;;;;;;;9.74;97.88;99910.77;107590;1254;87359;-62
2022/12/26 12:01:21;;;;;;;16.00;11.30;;;;;;;9.69;97.75;99907.63;107617;1254;93999;-61
2022/12/26 12:04:03;;;;;;;15.90;11.40;;;;;;;9.56;97.63;99904.86;107653;1253;81441;-61
2022/12/26 12:07:01;;;;;;;16.10;11.10;;;;;;;9.50;97.53;99898.50;107659;1252;83124;-62
2022/12/26 12:09:48;;;;;;;16.40;10.80;;;;;;;9.44;97.41;99902.19;107617;1254;97639;-62
2022/12/26 12:12:38;;;;;;;17.80;11.30;;;;;;;9.35;97.41;99899.91;107608;1254;88559;-62
2022/12/26 12:15:27;;;;;;;17.80;11.60;;;;;;;9.30;97.52;99901.07;107656;1254;95263;-61
2022/12/26 12:18:21;;;;;;;14.40;11.00;;;;;;;9.37;97.56;99904.16;107613;1254;80667;-63
2022/12/26 12:21:13;;;;;;;15.50;11.10;;;;;;;9.43;97.67;99904.09;107704;1252;83270;-61
2022/12/26 12:24:20;;;;;;;15.40;10.80;;;;;;;9.52;97.70;99901.85;107667;1253;98135;-56
2022/12/26 12:27:17;;;;;;;17.20;11.70;;;;;;;9.58;97.74;99905.83;107633;1252;88715;-64
2022/12/26 12:30:13;;;;;;;15.10;11.60;;;;;;;9.65;97.84;99900.24;107569;1254;96204;-64
2022/12/26 12:33:21;;;;;;;15.70;10.90;;;;;;;9.72;97.64;99901.31;107614;1255;80946;-62
2022/12/26 12:36:15;;;;;;;15.80;11.40;;;;;;;9.76;97.56;99915.61;107652;1253;82430;-62
2022/12/26 12:39:10;;;;;;;14.40;10.60;;;;;;;9.79;97.44;99918.62;107610;1254;99932;-62
2022/12/26 12:42:26;;;;;;;18.80;12.80;;;;;;;9.79;97.36;99912.20;107624;1254;86884;-62
2022/12/26 12:45:31;;;;;;;16.70;11.60;;;;;;;9.82;97.14;99922.96;107607;1254;94646;-64
2022/12/26 12:48:40;;;;;;;16.40;11.10;;;;;;;9.84;97.12;99921.07;107625;1253;81581;-63
2022/12/26 12:51:34;;;;;;;15.70;11.00;;;;;;;9.81;97.27;99921.91;107622;1252;82324;-65
2022/12/26 12:54:44;;;;;;;16.10;11.10;;;;;;;9.84;97.18;99919.77;107593;1252;98265;-64
2022/12/26 12:57:34;;;;;;;14.80;10.90;;;;;;;9.89;96.95;99927.61;107623;1254;88067;-63
2022/12/26 13:00:22;;;;;;;16.80;11.00;;;;;;;9.90;96.89;99928.95;107677;1254;94046;-63
2022/12/26 13:03:10;;;;;;;14.20;10.50;;;;;;;9.93;96.84;99927.15;107586;1254;81970;-65
2022/12/26 13:06:02;;;;;;;16.20;10.70;;;;;;;9.96;96.72;99925.31;107654;1254;82105;-63
2022/12/26 13:08:45;;;;;;;13.70;10.00;;;;;;;9.88;96.85;99926.57;107632;1253;98331;-63
2022/12/26 13:11:31;;;;;;;15.00;10.70;;;;;;;9.89;96.90;99927.65;107584;1254;86740;-65
2022/12/26 13:14:14;;;;;;;17.20;10.70;;;;;;;9.88;96.91;99928.64;107616;1254;95295;-63
2022/12/26 13:16:58;;;;;;;14.70;10.50;;;;;;;9.90;96.82;99938.66;107603;1254;80650;-63
2022/12/26 13:19:43;;;;;;;13.30;10.10;;;;;;;9.93;96.73;99933.70;107617;1254;81240;-63
2022/12/26 13:22:26;;;;;;;15.10;10.80;;;;;;;9.93;96.66;99933.95;107624;1254;97892;-62
2022/12/26 13:25:06;;;;;;;13.40;10.50;;;;;;;9.91;96.77;99928.51;107654;1254;88016;-61
2022/12/26 13:27:43;;;;;;;17.50;10.90;;;;;;;9.92;96.67;99928.05;107342;1254;384827;-63
2022/12/26 13:30:24;;;;;;;16.20;10.70;;;;;;;9.95;96.53;99929.98;107452;1254;79521;-59
2022/12/26 13:33:01;;;;;;;14.90;10.30;;;;;;;9.95;96.61;99936.23;107628;1254;82700;-64
2022/12/26 13:35:59;;;;;;;15.40;10.50;;;;;;;9.95;96.58;99934.09;107640;1255;95800;-64
2022/12/26 13:39:30;;;;;;;14.80;10.50;;;;;;;9.91;96.50;99930.84;107654;1253;88754;-63
2022/12/26 13:46:00;;;;;;;12.60;9.50;;;;;;;9.82;96.23;99932.70;107565;1252;81704;-61
2022/12/26 13:49:29;;;;;;;13.60;10.00;;;;;;;9.78;96.30;99932.52;107669;1252;82098;-62
2022/12/26 13:52:35;;;;;;;11.90;8.50;;;;;;;9.82;96.42;99932.38;107659;1254;96281;-60
2022/12/26 13:55:54;;;;;;;18.30;15.30;;;;;;;9.84;96.32;99930.98;107680;1254;88792;-61
2022/12/26 13:58:58;;;;;;;14.20;9.70;;;;;;;9.85;96.48;99930.01;107503;1254;93668;-62
2022/12/26 14:01:56;;;;;;;12.00;10.30;;;;;;;9.87;96.43;99927.97;107605;1254;80743;-62
2022/12/26 14:04:53;;;;;;;11.60;8.10;;;;;;;9.89;96.43;99920.85;107606;1254;83204;-62
2022/12/26 14:07:38;;;;;;;14.40;8.70;;;;;;;9.91;96.40;99916.77;107583;1254;97746;-63
2022/12/26 14:10:26;;;;;;;12.00;8.10;;;;;;;9.92;96.37;99920.08;107633;1254;87242;-64
2022/12/26 14:13:23;;;;;;;12.30;7.80;;;;;;;9.92;96.45;99918.26;107607;1254;93385;-63
2022/12/26 14:16:14;;;;;;;13.60;8.20;;;;;;;9.93;96.32;99923.41;107599;1254;81727;-57
2022/12/26 14:18:58;;;;;;;11.70;8.00;;;;;;;9.91;96.27;99935.45;107634;1254;79654;-63
2022/12/26 14:22:03;;;;;;;13.50;8.60;;;;;;;9.94;96.20;99940.73;107656;1254;99111;-63
2022/12/26 14:25:09;;;;;;;9.80;7.60;;;;;;;9.92;96.15;99943.63;107654;1254;88665;-63
2022/12/26 14:27:56;;;;;;;12.60;7.60;;;;;;;9.94;96.18;99933.79;107673;1253;94523;-63
2022/12/26 14:30:54;;;;;;;10.40;7.50;;;;;;;9.95;96.07;99932.39;107631;1256;80968;-60
2022/12/26 14:33:39;;;;;;;11.40;7.60;;;;;;;9.99;96.07;99931.14;107625;1253;81971;-63
2022/12/26 14:36:39;;;;;;;10.70;8.20;;;;;;;9.98;95.99;99924.13;107667;1254;97621;-62
2022/12/26 14:39:32;;;;;;;11.40;7.70;;;;;;;9.93;95.95;99921.95;107648;1254;89257;-60
2022/12/26 14:45:50;;;;;;;11.50;8.10;;;;;;;9.85;95.89;99925.34;107645;1254;81930;-62
2022/12/26 14:48:59;;;;;;;12.30;8.00;;;;;;;9.82;95.99;99924.21;107375;1252;81472;-60
2022/12/26 14:51:48;;;;;;;11.80;8.20;;;;;;;9.81;95.91;99928.55;107651;1254;96153;-60